sensor_id;sensor_type;location;lat;lon;timestamp;pressure;altitude;pressure_sealevel;temperature;humidity
40384;BME280;26097;42.366;23.818;2023-06-04T00:01:47;94211.31;;;14.95;100.00
40384;BME280;26097;42.366;23.818;2023-06-04T00:04:47;94196.13;;;14.79;100.00
40384;BME280;26097;42.366;23.818;2023-06-04T00:07:48;94200.97;;;14.74;100.00
40384;BME280;26097;42.366;23.818;2023-06-04T00:10:48;94206.22;;;14.74;100.00
40384;BME280;26097;42.366;23.818;2023-06-04T00:13:49;94200.00;;;14.75;100.00
40384;BME280;26097;42.366;23.818;2023-06-04T00:16:49;94202.50;;;14.77;100.00
40384;BME280;26097;42.366;23.818;2023-06-04T00:19:49;94206.22;;;14.74;100.00
40384;BME280;26097;42.366;23.818;2023-06-04T00:22:50;94203.00;;;14.70;100.00
40384;BME280;26097;42.366;23.818;2023-06-04T00:25:50;94212.56;;;14.71;100.00
40384;BME280;26097;42.366;23.818;2023-06-04T00:28:51;94215.44;;;14.68;100.00
40384;BME280;26097;42.366;23.818;2023-06-04T00:31:51;94218.50;;;14.74;100.00
40384;BME280;26097;42.366;23.818;2023-06-04T00:34:53;94215.44;;;14.68;100.00
40384;BME280;26097;42.366;23.818;2023-06-04T00:37:55;94209.38;;;14.68;100.00
40384;BME280;26097;42.366;23.818;2023-06-04T00:40:55;94217.38;;;14.66;100.00
40384;BME280;26097;42.366;23.818;2023-06-04T00:43:55;94208.25;;;14.70;100.00
40384;BME280;26097;42.366;23.818;2023-06-04T00:46:56;94213.78;;;14.67;100.00
40384;BME280;26097;42.366;23.818;2023-06-04T00:49:57;94215.19;;;14.71;100.00
40384;BME280;26097;42.366;23.818;2023-06-04T00:52:58;94209.69;;;14.75;100.00
40384;BME280;26097;42.366;23.818;2023-06-04T00:55:59;94215.44;;;14.68;100.00
40384;BME280;26097;42.366;23.818;2023-06-04T00:58:59;94215.16;;;14.62;100.00
40384;BME280;26097;42.366;23.818;2023-06-04T01:02:03;94211.03;;;14.59;100.00
40384;BME280;26097;42.366;23.818;2023-06-04T01:05:20;94204.13;;;14.68;100.00
40384;BME280;26097;42.366;23.818;2023-06-04T01:08:23;94208.97;;;14.73;100.00
40384;BME280;26097;42.366;23.818;2023-06-04T01:11:31;94215.88;;;14.74;100.00
40384;BME280;26097;42.366;23.818;2023-06-04T01:14:31;94211.84;;;14.69;100.00
40384;BME280;26097;42.366;23.818;2023-06-04T01:17:37;94222.63;;;14.66;100.00
40384;BME280;26097;42.366;23.818;2023-06-04T01:20:44;94219.03;;;14.67;100.00
40384;BME280;26097;42.366;23.818;2023-06-04T01:23:50;94216.28;;;14.69;100.00
40384;BME280;26097;42.366;23.818;2023-06-04T01:27:00;94215.72;;;14.65;100.00
40384;BME280;26097;42.366;23.818;2023-06-04T01:30:05;94220.97;;;14.65;100.00
40384;BME280;26097;42.366;23.818;2023-06-04T01:33:06;94218.22;;;14.67;100.00
40384;BME280;26097;42.366;23.818;2023-06-04T01:36:07;94231.19;;;14.68;100.00
40384;BME280;26097;42.366;23.818;2023-06-04T01:39:10;94229.53;;;14.67;100.00
40384;BME280;26097;42.366;23.818;2023-06-04T01:42:10;94233.31;;;14.75;100.00
40384;BME280;26097;42.366;23.818;2023-06-04T01:45:11;94229.94;;;14.63;100.00
40384;BME280;26097;42.366;23.818;2023-06-04T01:48:11;94227.59;;;14.60;100.00
40384;BME280;26097;42.366;23.818;2023-06-04T01:51:12;94235.19;;;14.53;100.00
40384;BME280;26097;42.366;23.818;2023-06-04T01:54:12;94227.88;;;14.47;100.00
40384;BME280;26097;42.366;23.818;2023-06-04T01:57:12;94235.88;;;14.45;100.00
40384;BME280;26097;42.366;23.818;2023-06-04T02:00:13;94232.00;;;14.39;100.00
40384;BME280;26097;42.366;23.818;2023-06-04T02:03:14;94241.81;;;14.37;100.00
40384;BME280;26097;42.366;23.818;2023-06-04T02:06:15;94232.28;;;14.36;100.00
40384;BME280;26097;42.366;23.818;2023-06-04T02:09:16;94241.38;;;14.32;100.00
40384;BME280;26097;42.366;23.818;2023-06-04T02:12:16;94239.28;;;14.26;100.00
40384;BME280;26097;42.366;23.818;2023-06-04T02:15:16;94239.28;;;14.26;100.00
40384;BME280;26097;42.366;23.818;2023-06-04T02:18:19;94246.47;;;14.24;100.00
40384;BME280;26097;42.366;23.818;2023-06-04T02:21:21;94247.44;;;14.23;100.00
40384;BME280;26097;42.366;23.818;2023-06-04T02:24:22;94241.34;;;14.22;100.00
40384;BME280;26097;42.366;23.818;2023-06-04T02:27:22;94247.03;;;14.18;100.00
40384;BME280;26097;42.366;23.818;2023-06-04T02:30:22;94251.81;;;14.12;100.00
40384;BME280;26097;42.366;23.818;2023-06-04T02:33:23;94251.69;;;14.14;100.00
40384;BME280;26097;42.366;23.818;2023-06-04T02:36:23;94266.47;;;14.15;100.00
40384;BME280;26097;42.366;23.818;2023-06-04T02:39:24;94265.38;;;14.18;100.00
40384;BME280;26097;42.366;23.818;2023-06-04T02:42:24;94262.88;;;14.16;100.00
40384;BME280;26097;42.366;23.818;2023-06-04T02:45:25;94267.03;;;14.19;100.00
40384;BME280;26097;42.366;23.818;2023-06-04T02:48:25;94270.84;;;14.14;100.00
40384;BME280;26097;42.366;23.818;2023-06-04T02:51:26;94280.25;;;14.17;100.00
40384;BME280;26097;42.366;23.818;2023-06-04T02:54:26;94267.41;;;14.14;100.00
40384;BME280;26097;42.366;23.818;2023-06-04T02:57:26;94273.63;;;14.13;100.00
40384;BME280;26097;42.366;23.818;2023-06-04T03:00:27;94272.78;;;14.12;100.00
40384;BME280;26097;42.366;23.818;2023-06-04T03:03:27;94284.81;;;14.15;100.00
40384;BME280;26097;42.366;23.818;2023-06-04T03:06:27;94283.03;;;14.16;100.00
40384;BME280;26097;42.366;23.818;2023-06-04T03:09:32;94282.06;;;14.17;100.00
40384;BME280;26097;42.366;23.818;2023-06-04T03:12:33;94283.97;;;14.14;100.00
40384;BME280;26097;42.366;23.818;2023-06-04T03:15:34;94283.97;;;14.14;100.00
40384;BME280;26097;42.366;23.818;2023-06-04T03:18:42;94288.00;;;14.19;100.00
40384;BME280;26097;42.366;23.818;2023-06-04T03:21:44;94292.28;;;14.20;100.00
40384;BME280;26097;42.366;23.818;2023-06-04T03:24:45;94296.69;;;14.19;100.00
40384;BME280;26097;42.366;23.818;2023-06-04T03:27:45;94298.22;;;14.22;100.00
40384;BME280;26097;42.366;23.818;2023-06-04T03:30:45;94294.63;;;14.23;100.00
40384;BME280;26097;42.366;23.818;2023-06-04T03:33:46;94292.00;;;14.23;100.00
40384;BME280;26097;42.366;23.818;2023-06-04T03:36:46;94299.31;;;14.29;100.00
40384;BME280;26097;42.366;23.818;2023-06-04T03:39:47;94305.53;;;14.28;100.00
40384;BME280;26097;42.366;23.818;2023-06-04T03:42:47;94309.53;;;14.32;100.00
40384;BME280;26097;42.366;23.818;2023-06-04T03:45:48;94309.28;;;14.35;100.00
40384;BME280;26097;42.366;23.818;2023-06-04T03:48:48;94317.84;;;14.37;100.00
40384;BME280;26097;42.366;23.818;2023-06-04T03:51:49;94316.44;;;14.33;100.00
40384;BME280;26097;42.366;23.818;2023-06-04T03:54:49;94324.31;;;14.33;100.00
40384;BME280;26097;42.366;23.818;2023-06-04T03:57:49;94320.03;;;14.32;100.00
40384;BME280;26097;42.366;23.818;2023-06-04T04:00:50;94326.69;;;14.36;100.00
40384;BME280;26097;42.366;23.818;2023-06-04T04:03:52;94330.00;;;14.38;100.00
40384;BME280;26097;42.366;23.818;2023-06-04T04:06:52;94326.00;;;14.44;100.00
40384;BME280;26097;42.366;23.818;2023-06-04T04:09:53;94333.31;;;14.40;100.00
40384;BME280;26097;42.366;23.818;2023-06-04T04:12:53;94334.81;;;14.43;100.00
40384;BME280;26097;42.366;23.818;2023-06-04T04:15:55;94328.50;;;14.46;100.00
40384;BME280;26097;42.366;23.818;2023-06-04T04:18:55;94332.50;;;14.50;100.00
40384;BME280;26097;42.366;23.818;2023-06-04T04:21:56;94335.56;;;14.55;100.00
40384;BME280;26097;42.366;23.818;2023-06-04T04:24:56;94333.34;;;14.60;100.00
40384;BME280;26097;42.366;23.818;2023-06-04T04:27:57;94343.31;;;14.66;100.00
40384;BME280;26097;42.366;23.818;2023-06-04T04:31:00;94347.78;;;14.76;100.00
40384;BME280;26097;42.366;23.818;2023-06-04T04:34:02;94345.28;;;14.84;100.00
40384;BME280;26097;42.366;23.818;2023-06-04T04:37:07;94344.22;;;14.96;100.00
40384;BME280;26097;42.366;23.818;2023-06-04T04:40:08;94339.22;;;15.03;100.00
40384;BME280;26097;42.366;23.818;2023-06-04T04:43:12;94349.47;;;15.06;100.00
40384;BME280;26097;42.366;23.818;2023-06-04T04:46:12;94358.03;;;15.18;100.00
40384;BME280;26097;42.366;23.818;2023-06-04T04:49:13;94351.38;;;15.53;100.00
40384;BME280;26097;42.366;23.818;2023-06-04T04:52:13;94350.91;;;15.68;100.00
40384;BME280;26097;42.366;23.818;2023-06-04T04:55:14;94354.09;;;15.81;100.00
40384;BME280;26097;42.366;23.818;2023-06-04T04:58:14;94352.38;;;16.10;100.00
40384;BME280;26097;42.366;23.818;2023-06-04T05:01:15;94360.50;;;16.17;100.00
40384;BME280;26097;42.366;23.818;2023-06-04T05:04:16;94353.41;;;16.27;100.00
40384;BME280;26097;42.366;23.818;2023-06-04T05:07:16;94358.56;;;16.47;100.00
40384;BME280;26097;42.366;23.818;2023-06-04T05:10:16;94361.28;;;16.83;100.00
40384;BME280;26097;42.366;23.818;2023-06-04T05:13:17;94363.63;;;16.86;100.00
40384;BME280;26097;42.366;23.818;2023-06-04T05:16:18;94357.78;;;16.92;100.00
40384;BME280;26097;42.366;23.818;2023-06-04T05:19:20;94360.66;;;17.17;100.00
40384;BME280;26097;42.366;23.818;2023-06-04T05:22:20;94363.38;;;17.25;100.00
40384;BME280;26097;42.366;23.818;2023-06-04T05:25:22;94366.59;;;17.37;100.00
40384;BME280;26097;42.366;23.818;2023-06-04T05:28:22;94360.72;;;17.25;100.00
40384;BME280;26097;42.366;23.818;2023-06-04T05:31:26;94361.56;;;17.44;100.00
40384;BME280;26097;42.366;23.818;2023-06-04T05:34:29;94367.72;;;17.71;100.00
40384;BME280;26097;42.366;23.818;2023-06-04T05:37:29;94371.91;;;17.64;100.00
40384;BME280;26097;42.366;23.818;2023-06-04T05:40:30;94371.41;;;17.87;100.00
40384;BME280;26097;42.366;23.818;2023-06-04T05:43:31;94373.50;;;18.27;100.00
40384;BME280;26097;42.366;23.818;2023-06-04T05:46:31;94378.53;;;18.39;100.00
40384;BME280;26097;42.366;23.818;2023-06-04T05:49:34;94377.34;;;18.33;100.00
40384;BME280;26097;42.366;23.818;2023-06-04T05:52:34;94378.06;;;18.17;100.00
40384;BME280;26097;42.366;23.818;2023-06-04T05:55:36;94379.91;;;18.25;100.00
40384;BME280;26097;42.366;23.818;2023-06-04T05:58:37;94386.56;;;18.29;100.00
40384;BME280;26097;42.366;23.818;2023-06-04T06:01:37;94386.78;;;18.44;100.00
40384;BME280;26097;42.366;23.818;2023-06-04T06:04:38;94389.81;;;19.01;100.00
40384;BME280;26097;42.366;23.818;2023-06-04T06:07:38;94392.22;;;19.37;100.00
40384;BME280;26097;42.366;23.818;2023-06-04T06:10:39;94393.53;;;19.58;100.00
40384;BME280;26097;42.366;23.818;2023-06-04T06:13:39;94403.81;;;19.69;100.00
40384;BME280;26097;42.366;23.818;2023-06-04T06:16:40;94400.97;;;19.87;100.00
40384;BME280;26097;42.366;23.818;2023-06-04T06:19:40;94400.84;;;19.72;100.00
40384;BME280;26097;42.366;23.818;2023-06-04T06:22:40;94403.13;;;19.75;100.00
40384;BME280;26097;42.366;23.818;2023-06-04T06:25:41;94404.63;;;19.86;100.00
40384;BME280;26097;42.366;23.818;2023-06-04T06:28:41;94398.19;;;19.89;100.00
40384;BME280;26097;42.366;23.818;2023-06-04T06:31:42;94398.50;;;19.77;100.00
40384;BME280;26097;42.366;23.818;2023-06-04T06:34:42;94392.22;;;19.37;100.00
40384;BME280;26097;42.366;23.818;2023-06-04T06:37:43;94402.59;;;19.30;100.00
40384;BME280;26097;42.366;23.818;2023-06-04T06:40:43;94405.31;;;18.95;100.00
40384;BME280;26097;42.366;23.818;2023-06-04T06:43:44;94402.84;;;18.59;100.00
40384;BME280;26097;42.366;23.818;2023-06-04T06:46:44;94407.03;;;18.35;100.00
40384;BME280;26097;42.366;23.818;2023-06-04T06:49:45;94398.34;;;18.17;100.00
40384;BME280;26097;42.366;23.818;2023-06-04T06:52:45;94418.72;;;18.06;100.00
40384;BME280;26097;42.366;23.818;2023-06-04T06:55:45;94415.41;;;18.04;100.00
40384;BME280;26097;42.366;23.818;2023-06-04T06:58:46;94416.31;;;17.95;100.00
40384;BME280;26097;42.366;23.818;2023-06-04T07:01:46;94419.84;;;17.85;100.00
40384;BME280;26097;42.366;23.818;2023-06-04T07:04:47;94422.31;;;17.79;100.00
40384;BME280;26097;42.366;23.818;2023-06-04T07:07:48;94419.81;;;17.77;100.00
40384;BME280;26097;42.366;23.818;2023-06-04T07:10:48;94421.78;;;17.75;100.00
40384;BME280;26097;42.366;23.818;2023-06-04T07:13:49;94429.59;;;17.67;100.00
40384;BME280;26097;42.366;23.818;2023-06-04T07:16:49;94438.50;;;17.48;100.00
40384;BME280;26097;42.366;23.818;2023-06-04T07:19:50;94439.41;;;17.56;100.00
40384;BME280;26097;42.366;23.818;2023-06-04T07:22:50;94449.47;;;17.43;100.00
40384;BME280;26097;42.366;23.818;2023-06-04T07:25:51;94452.97;;;17.44;100.00
40384;BME280;26097;42.366;23.818;2023-06-04T07:28:51;94463.34;;;17.45;100.00
40384;BME280;26097;42.366;23.818;2023-06-04T07:31:52;94464.47;;;17.42;100.00
40384;BME280;26097;42.366;23.818;2023-06-04T07:34:52;94470.34;;;17.54;100.00
40384;BME280;26097;42.366;23.818;2023-06-04T07:37:52;94469.28;;;17.47;100.00
40384;BME280;26097;42.366;23.818;2023-06-04T07:40:53;94472.81;;;17.56;100.00
40384;BME280;26097;42.366;23.818;2023-06-04T07:43:53;94476.31;;;17.56;100.00
40384;BME280;26097;42.366;23.818;2023-06-04T07:46:54;94482.13;;;17.60;100.00
40384;BME280;26097;42.366;23.818;2023-06-04T07:49:54;94476.31;;;17.56;100.00
40384;BME280;26097;42.366;23.818;2023-06-04T07:52:54;94475.03;;;17.61;100.00
40384;BME280;26097;42.366;23.818;2023-06-04T07:55:57;94483.03;;;17.69;100.00
40384;BME280;26097;42.366;23.818;2023-06-04T07:58:57;94483.91;;;17.78;100.00
40384;BME280;26097;42.366;23.818;2023-06-04T08:01:58;94484.44;;;17.81;100.00
40384;BME280;26097;42.366;23.818;2023-06-04T08:04:58;94487.69;;;18.11;100.00
40384;BME280;26097;42.366;23.818;2023-06-04T08:07:58;94486.81;;;18.29;100.00
40384;BME280;26097;42.366;23.818;2023-06-04T08:10:59;94489.47;;;18.29;100.00
40384;BME280;26097;42.366;23.818;2023-06-04T08:13:59;94488.47;;;18.56;100.00
40384;BME280;26097;42.366;23.818;2023-06-04T08:17:00;94489.03;;;18.68;100.00
40384;BME280;26097;42.366;23.818;2023-06-04T08:20:00;94488.66;;;18.63;100.00
40384;BME280;26097;42.366;23.818;2023-06-04T08:23:01;94489.75;;;18.79;100.00
40384;BME280;26097;42.366;23.818;2023-06-04T08:26:01;94502.34;;;18.59;100.00
40384;BME280;26097;42.366;23.818;2023-06-04T08:29:03;94497.56;;;18.62;100.00
40384;BME280;26097;42.366;23.818;2023-06-04T08:32:04;94494.00;;;18.45;100.00
40384;BME280;26097;42.366;23.818;2023-06-04T08:35:06;94508.34;;;18.42;100.00
40384;BME280;26097;42.366;23.818;2023-06-04T08:38:07;94502.94;;;18.26;100.00
40384;BME280;26097;42.366;23.818;2023-06-04T08:41:28;94502.53;;;18.12;100.00
40384;BME280;26097;42.366;23.818;2023-06-04T08:44:29;94509.81;;;17.82;100.00
40384;BME280;26097;42.366;23.818;2023-06-04T08:47:32;94513.13;;;17.66;100.00
40384;BME280;26097;42.366;23.818;2023-06-04T08:50:35;94519.28;;;17.39;100.00
40384;BME280;26097;42.366;23.818;2023-06-04T08:53:36;94529.38;;;17.16;100.00
40384;BME280;26097;42.366;23.818;2023-06-04T08:56:36;94535.66;;;17.05;100.00
40384;BME280;26097;42.366;23.818;2023-06-04T08:59:37;94528.59;;;17.05;100.00
40384;BME280;26097;42.366;23.818;2023-06-04T09:02:38;94535.97;;;17.02;100.00
40384;BME280;26097;42.366;23.818;2023-06-04T09:05:39;94536.03;;;17.20;100.00
40384;BME280;26097;42.366;23.818;2023-06-04T09:08:43;94538.84;;;17.36;100.00
40384;BME280;26097;42.366;23.818;2023-06-04T09:11:54;94541.63;;;17.35;100.00
40384;BME280;26097;42.366;23.818;2023-06-04T09:14:54;94543.88;;;17.30;100.00
40384;BME280;26097;42.366;23.818;2023-06-04T09:17:55;94540.28;;;17.31;100.00
40384;BME280;26097;42.366;23.818;2023-06-04T09:24:02;94533.13;;;17.41;100.00
40384;BME280;26097;42.366;23.818;2023-06-04T09:27:09;94542.75;;;17.32;100.00
40384;BME280;26097;42.366;23.818;2023-06-04T09:30:10;94540.34;;;17.39;100.00
40384;BME280;26097;42.366;23.818;2023-06-04T09:33:11;94535.94;;;17.39;100.00
40384;BME280;26097;42.366;23.818;2023-06-04T09:36:12;94537.91;;;17.55;100.00
40384;BME280;26097;42.366;23.818;2023-06-04T09:39:17;94536.25;;;17.54;100.00
40384;BME280;26097;42.366;23.818;2023-06-04T09:42:17;94546.72;;;17.64;100.00
40384;BME280;26097;42.366;23.818;2023-06-04T09:45:34;94541.69;;;17.71;100.00
40384;BME280;26097;42.366;23.818;2023-06-04T09:48:35;94532.81;;;17.72;100.00
40384;BME280;26097;42.366;23.818;2023-06-04T09:51:47;94531.34;;;17.78;100.00
40384;BME280;26097;42.366;23.818;2023-06-04T09:54:47;94533.09;;;17.69;100.00
40384;BME280;26097;42.366;23.818;2023-06-04T09:57:49;94538.81;;;17.82;100.00
40384;BME280;26097;42.366;23.818;2023-06-04T10:00:49;94536.81;;;18.12;100.00
40384;BME280;26097;42.366;23.818;2023-06-04T10:03:51;94529.50;;;18.24;100.00
40384;BME280;26097;42.366;23.818;2023-06-04T10:06:52;94528.09;;;18.38;100.00
40384;BME280;26097;42.366;23.818;2023-06-04T10:09:53;94533.66;;;18.53;100.00
40384;BME280;26097;42.366;23.818;2023-06-04T10:13:04;94526.44;;;18.37;100.00
40384;BME280;26097;42.366;23.818;2023-06-04T10:16:06;94527.75;;;18.33;100.00
40384;BME280;26097;42.366;23.818;2023-06-04T10:19:07;94531.59;;;18.21;100.00
40384;BME280;26097;42.366;23.818;2023-06-04T10:22:09;94526.50;;;18.19;100.00
40384;BME280;26097;42.366;23.818;2023-06-04T10:25:12;94522.28;;;18.08;100.00
40384;BME280;26097;42.366;23.818;2023-06-04T10:28:12;94525.88;;;18.07;100.00
40384;BME280;26097;42.366;23.818;2023-06-04T10:31:15;94520.16;;;18.30;100.00
40384;BME280;26097;42.366;23.818;2023-06-04T10:34:15;94525.59;;;18.55;100.00
40384;BME280;26097;42.366;23.818;2023-06-04T10:37:21;94528.38;;;18.80;100.00
40384;BME280;26097;42.366;23.818;2023-06-04T10:40:31;94517.69;;;18.90;100.00
40384;BME280;26097;42.366;23.818;2023-06-04T10:43:32;94518.28;;;18.75;100.00
40384;BME280;26097;42.366;23.818;2023-06-04T10:46:41;94520.44;;;18.80;100.00
40384;BME280;26097;42.366;23.818;2023-06-04T10:49:41;94522.03;;;19.34;100.00
40384;BME280;26097;42.366;23.818;2023-06-04T10:52:52;94526.16;;;19.88;100.00
40384;BME280;26097;42.366;23.818;2023-06-04T10:55:52;94516.28;;;20.06;100.00
40384;BME280;26097;42.366;23.818;2023-06-04T10:58:53;94512.63;;;19.99;100.00
40384;BME280;26097;42.366;23.818;2023-06-04T11:02:04;94514.53;;;19.80;100.00
40384;BME280;26097;42.366;23.818;2023-06-04T11:05:06;94515.50;;;19.46;100.00
40384;BME280;26097;42.366;23.818;2023-06-04T11:08:09;94521.97;;;19.17;100.00
40384;BME280;26097;42.366;23.818;2023-06-04T11:11:14;94516.06;;;19.23;100.00
40384;BME280;26097;42.366;23.818;2023-06-04T11:14:15;94519.34;;;19.25;100.00
40384;BME280;26097;42.366;23.818;2023-06-04T11:17:17;94519.66;;;19.14;100.00
40384;BME280;26097;42.366;23.818;2023-06-04T11:20:19;94511.84;;;19.47;100.00
40384;BME280;26097;42.366;23.818;2023-06-04T11:23:20;94521.91;;;19.52;100.00
40384;BME280;26097;42.366;23.818;2023-06-04T11:26:20;94515.50;;;19.54;100.00
40384;BME280;26097;42.366;23.818;2023-06-04T11:29:21;94518.28;;;19.45;100.00
40384;BME280;26097;42.366;23.818;2023-06-04T11:32:23;94516.97;;;19.49;100.00
40384;BME280;26097;42.366;23.818;2023-06-04T11:35:23;94514.97;;;19.43;100.00
40384;BME280;26097;42.366;23.818;2023-06-04T11:38:24;94516.63;;;19.44;100.00
40384;BME280;26097;42.366;23.818;2023-06-04T11:41:29;94516.47;;;19.53;100.00
40384;BME280;26097;42.366;23.818;2023-06-04T11:44:30;94517.63;;;19.43;100.00
40384;BME280;26097;42.366;23.818;2023-06-04T11:47:31;94531.63;;;19.26;100.00
40384;BME280;26097;42.366;23.818;2023-06-04T11:50:31;94518.53;;;19.25;100.00
40384;BME280;26097;42.366;23.818;2023-06-04T11:53:32;94520.66;;;19.13;100.00
40384;BME280;26097;42.366;23.818;2023-06-04T11:56:33;94518.28;;;19.02;100.00
40384;BME280;26097;42.366;23.818;2023-06-04T11:59:34;94514.66;;;19.03;100.00
40384;BME280;26097;42.366;23.818;2023-06-04T12:02:38;94522.06;;;18.99;100.00
40384;BME280;26097;42.366;23.818;2023-06-04T12:05:39;94516.56;;;18.92;100.00
40384;BME280;26097;42.366;23.818;2023-06-04T12:08:47;94521.19;;;18.90;100.00
40384;BME280;26097;42.366;23.818;2023-06-04T12:11:47;94526.81;;;18.95;100.00
40384;BME280;26097;42.366;23.818;2023-06-04T12:14:56;94529.88;;;19.09;100.00
40384;BME280;26097;42.366;23.818;2023-06-04T12:17:57;94524.53;;;19.01;100.00
40384;BME280;26097;42.366;23.818;2023-06-04T12:20:58;94522.84;;;18.91;100.00
40384;BME280;26097;42.366;23.818;2023-06-04T12:27:09;94529.44;;;18.95;100.00
40384;BME280;26097;42.366;23.818;2023-06-04T12:30:09;94528.06;;;19.09;100.00
40384;BME280;26097;42.366;23.818;2023-06-04T12:33:11;94532.88;;;19.14;100.00
40384;BME280;26097;42.366;23.818;2023-06-04T12:36:12;94530.56;;;19.19;100.00
40384;BME280;26097;42.366;23.818;2023-06-04T12:39:12;94535.59;;;19.31;100.00
40384;BME280;26097;42.366;23.818;2023-06-04T12:42:13;94533.88;;;19.21;100.00
40384;BME280;26097;42.366;23.818;2023-06-04T12:45:13;94536.19;;;19.16;100.00
40384;BME280;26097;42.366;23.818;2023-06-04T12:48:14;94535.25;;;19.34;100.00
40384;BME280;26097;42.366;23.818;2023-06-04T12:51:14;94531.75;;;19.17;100.00
40384;BME280;26097;42.366;23.818;2023-06-04T12:54:14;94536.34;;;18.88;100.00
40384;BME280;26097;42.366;23.818;2023-06-04T12:57:15;94537.38;;;18.69;100.00
40384;BME280;26097;42.366;23.818;2023-06-04T13:00:15;94550.88;;;18.39;100.00
40384;BME280;26097;42.366;23.818;2023-06-04T13:03:16;94546.41;;;18.13;100.00
40384;BME280;26097;42.366;23.818;2023-06-04T13:06:17;94542.53;;;17.90;100.00
40384;BME280;26097;42.366;23.818;2023-06-04T13:09:18;94539.50;;;17.84;100.00
40384;BME280;26097;42.366;23.818;2023-06-04T13:12:20;94540.47;;;17.83;100.00
40384;BME280;26097;42.366;23.818;2023-06-04T13:15:21;94530.38;;;17.97;100.00
40384;BME280;26097;42.366;23.818;2023-06-04T13:18:22;94537.19;;;18.18;100.00
40384;BME280;26097;42.366;23.818;2023-06-04T13:21:22;94537.06;;;18.72;100.00
40384;BME280;26097;42.366;23.818;2023-06-04T13:24:23;94532.16;;;19.55;100.00
40384;BME280;26097;42.366;23.818;2023-06-04T13:27:24;94536.38;;;19.82;100.00
40384;BME280;26097;42.366;23.818;2023-06-04T13:30:24;94535.03;;;19.78;100.00
40384;BME280;26097;42.366;23.818;2023-06-04T13:33:25;94529.75;;;19.78;100.00
40384;BME280;26097;42.366;23.818;2023-06-04T13:36:25;94532.16;;;19.55;100.00
40384;BME280;26097;42.366;23.818;2023-06-04T13:39:25;94531.94;;;19.32;100.00
40384;BME280;26097;42.366;23.818;2023-06-04T13:42:26;94528.59;;;19.21;100.00
40384;BME280;26097;42.366;23.818;2023-06-04T13:45:26;94520.13;;;19.09;100.00
40384;BME280;26097;42.366;23.818;2023-06-04T13:48:27;94520.97;;;19.10;100.00
40384;BME280;26097;42.366;23.818;2023-06-04T13:51:28;94509.69;;;19.43;100.00
40384;BME280;26097;42.366;23.818;2023-06-04T13:54:30;94515.72;;;19.86;100.00
40384;BME280;26097;42.366;23.818;2023-06-04T13:57:32;94514.94;;;20.10;100.00
40384;BME280;26097;42.366;23.818;2023-06-04T14:00:33;94512.31;;;20.10;100.00
40384;BME280;26097;42.366;23.818;2023-06-04T14:03:34;94506.69;;;20.14;100.00
40384;BME280;26097;42.366;23.818;2023-06-04T14:06:35;94506.00;;;20.20;100.00
40384;BME280;26097;42.366;23.818;2023-06-04T14:09:36;94500.06;;;20.26;100.00
40384;BME280;26097;42.366;23.818;2023-06-04T14:12:40;94492.63;;;20.21;100.00
40384;BME280;26097;42.366;23.818;2023-06-04T14:15:41;94495.06;;;20.23;100.00
40384;BME280;26097;42.366;23.818;2023-06-04T14:18:41;94501.56;;;20.20;100.00
40384;BME280;26097;42.366;23.818;2023-06-04T14:21:43;94490.13;;;20.20;100.00
40384;BME280;26097;42.366;23.818;2023-06-04T14:24:43;94493.59;;;20.37;100.00
40384;BME280;26097;42.366;23.818;2023-06-04T14:27:43;94494.06;;;20.40;100.00
40384;BME280;26097;42.366;23.818;2023-06-04T14:30:44;94494.09;;;20.32;100.00
40384;BME280;26097;42.366;23.818;2023-06-04T14:33:44;94501.53;;;20.37;100.00
40384;BME280;26097;42.366;23.818;2023-06-04T14:36:46;94504.34;;;20.35;100.00
40384;BME280;26097;42.366;23.818;2023-06-04T14:39:47;94510.31;;;20.46;100.00
40384;BME280;26097;42.366;23.818;2023-06-04T14:42:47;94505.97;;;20.53;100.00
40384;BME280;26097;42.366;23.818;2023-06-04T14:45:48;94505.66;;;20.39;100.00
40384;BME280;26097;42.366;23.818;2023-06-04T14:48:48;94501.38;;;20.38;100.00
40384;BME280;26097;42.366;23.818;2023-06-04T14:51:49;94491.75;;;20.37;100.00
40384;BME280;26097;42.366;23.818;2023-06-04T14:54:49;94486.44;;;20.54;100.00
40384;BME280;26097;42.366;23.818;2023-06-04T14:57:50;94489.13;;;20.46;100.00
40384;BME280;26097;42.366;23.818;2023-06-04T15:00:51;94482.84;;;20.30;100.00
40384;BME280;26097;42.366;23.818;2023-06-04T15:03:51;94481.66;;;20.33;100.00
40384;BME280;26097;42.366;23.818;2023-06-04T15:06:52;94482.03;;;20.38;100.00
40384;BME280;26097;42.366;23.818;2023-06-04T15:09:52;94481.69;;;20.24;100.00
40384;BME280;26097;42.366;23.818;2023-06-04T15:12:53;94475.91;;;20.21;100.00
40384;BME280;26097;42.366;23.818;2023-06-04T15:15:53;94479.06;;;20.16;100.00
40384;BME280;26097;42.366;23.818;2023-06-04T15:18:53;94479.22;;;20.15;100.00
40384;BME280;26097;42.366;23.818;2023-06-04T15:21:55;94474.91;;;20.22;100.00
40384;BME280;26097;42.366;23.818;2023-06-04T15:24:55;94478.19;;;20.24;100.00
40384;BME280;26097;42.366;23.818;2023-06-04T15:27:56;94479.53;;;20.20;100.00
40384;BME280;26097;42.366;23.818;2023-06-04T15:30:57;94474.91;;;19.97;100.00
40384;BME280;26097;42.366;23.818;2023-06-04T15:33:57;94472.91;;;19.91;100.00
40384;BME280;26097;42.366;23.818;2023-06-04T15:36:57;94475.88;;;19.88;100.00
40384;BME280;26097;42.366;23.818;2023-06-04T15:39:58;94481.84;;;19.98;100.00
40384;BME280;26097;42.366;23.818;2023-06-04T15:42:59;94473.25;;;19.96;100.00